sensor_id;sensor_type;location;lat;lon;timestamp;pressure;altitude;pressure_sealevel;temperature;humidity
35676;BME280;21790;42.668;23.298;2024-03-08T00:01:00;94725.97;;;13.11;48.88
35676;BME280;21790;42.668;23.298;2024-03-08T00:03:29;94730.81;;;13.25;48.59
35676;BME280;21790;42.668;23.298;2024-03-08T00:05:54;94732.75;;;13.10;48.06
35676;BME280;21790;42.668;23.298;2024-03-08T00:08:21;94735.53;;;13.10;47.63
35676;BME280;21790;42.668;23.298;2024-03-08T00:10:46;94730.63;;;13.14;47.84
35676;BME280;21790;42.668;23.298;2024-03-08T00:13:12;94738.66;;;13.12;47.81
35676;BME280;21790;42.668;23.298;2024-03-08T00:15:37;94737.38;;;12.98;48.07
35676;BME280;21790;42.668;23.298;2024-03-08T00:18:03;94731.16;;;13.03;48.10
35676;BME280;21790;42.668;23.298;2024-03-08T00:20:29;94727.88;;;13.05;47.91
35676;BME280;21790;42.668;23.298;2024-03-08T00:22:54;94731.16;;;13.03;48.33
35676;BME280;21790;42.668;23.298;2024-03-08T00:25:23;94726.38;;;13.04;48.22
35676;BME280;21790;42.668;23.298;2024-03-08T00:27:49;94729.53;;;13.11;47.69
35676;BME280;21790;42.668;23.298;2024-03-08T00:30:21;94725.78;;;12.99;47.81
35676;BME280;21790;42.668;23.298;2024-03-08T00:32:48;94728.38;;;13.03;47.75
35676;BME280;21790;42.668;23.298;2024-03-08T00:35:14;94724.91;;;12.93;47.91
35676;BME280;21790;42.668;23.298;2024-03-08T00:37:40;94722.94;;;13.09;47.20
35676;BME280;21790;42.668;23.298;2024-03-08T00:40:07;94719.56;;;13.05;47.74
35676;BME280;21790;42.668;23.298;2024-03-08T00:42:34;94721.56;;;13.04;47.53
35676;BME280;21790;42.668;23.298;2024-03-08T00:45:00;94707.59;;;12.98;47.53
35676;BME280;21790;42.668;23.298;2024-03-08T00:47:26;94713.91;;;12.99;47.56
35676;BME280;21790;42.668;23.298;2024-03-08T00:49:52;94709.72;;;13.04;47.43
35676;BME280;21790;42.668;23.298;2024-03-08T00:52:18;94710.88;;;12.97;47.59
35676;BME280;21790;42.668;23.298;2024-03-08T00:54:44;94706.94;;;13.04;47.62
35676;BME280;21790;42.668;23.298;2024-03-08T00:57:10;94707.78;;;12.95;48.21
35676;BME280;21790;42.668;23.298;2024-03-08T00:59:38;94699.72;;;12.82;48.95
35676;BME280;21790;42.668;23.298;2024-03-08T01:02:03;94697.63;;;12.77;49.42
35676;BME280;21790;42.668;23.298;2024-03-08T01:04:29;94692.88;;;12.92;48.71
35676;BME280;21790;42.668;23.298;2024-03-08T01:06:58;94691.56;;;13.03;48.47
35676;BME280;21790;42.668;23.298;2024-03-08T01:09:24;94685.28;;;12.78;49.35
35676;BME280;21790;42.668;23.298;2024-03-08T01:11:50;94688.63;;;12.82;49.20
35676;BME280;21790;42.668;23.298;2024-03-08T01:14:16;94696.47;;;12.69;49.58
35676;BME280;21790;42.668;23.298;2024-03-08T01:16:42;94691.88;;;12.66;49.53
35676;BME280;21790;42.668;23.298;2024-03-08T01:19:07;94693.41;;;12.67;49.49
35676;BME280;21790;42.668;23.298;2024-03-08T01:21:33;94689.75;;;12.61;49.77
35676;BME280;21790;42.668;23.298;2024-03-08T01:23:58;94690.34;;;12.65;49.71
35676;BME280;21790;42.668;23.298;2024-03-08T01:26:24;94690.47;;;12.71;49.43
35676;BME280;21790;42.668;23.298;2024-03-08T01:28:49;94674.19;;;12.78;49.27
35676;BME280;21790;42.668;23.298;2024-03-08T01:31:15;94678.09;;;12.72;49.20
35676;BME280;21790;42.668;23.298;2024-03-08T01:33:42;94683.75;;;12.77;48.92
35676;BME280;21790;42.668;23.298;2024-03-08T01:36:07;94675.16;;;12.75;48.85
35676;BME280;21790;42.668;23.298;2024-03-08T01:38:33;94677.06;;;12.69;49.37
35676;BME280;21790;42.668;23.298;2024-03-08T01:41:01;94679.91;;;12.60;49.53
35676;BME280;21790;42.668;23.298;2024-03-08T01:43:28;94682.16;;;12.71;49.66
35676;BME280;21790;42.668;23.298;2024-03-08T01:45:58;94673.53;;;12.69;49.66
35676;BME280;21790;42.668;23.298;2024-03-08T01:48:27;94676.75;;;12.67;49.25
35676;BME280;21790;42.668;23.298;2024-03-08T01:50:55;94671.22;;;12.67;49.11
35676;BME280;21790;42.668;23.298;2024-03-08T01:53:20;94674.97;;;12.64;49.15
35676;BME280;21790;42.668;23.298;2024-03-08T01:55:49;94677.06;;;12.69;49.09
35676;BME280;21790;42.668;23.298;2024-03-08T01:58:15;94677.22;;;12.51;49.27
35676;BME280;21790;42.668;23.298;2024-03-08T02:00:44;94676.94;;;12.49;49.53
35676;BME280;21790;42.668;23.298;2024-03-08T02:03:10;94668.44;;;12.52;49.12
35676;BME280;21790;42.668;23.298;2024-03-08T02:05:36;94668.25;;;12.56;49.28
35676;BME280;21790;42.668;23.298;2024-03-08T02:08:04;94664.88;;;12.52;49.07
35676;BME280;21790;42.668;23.298;2024-03-08T02:10:33;94663.53;;;12.47;49.37
35676;BME280;21790;42.668;23.298;2024-03-08T02:13:01;94673.66;;;12.50;49.04
35676;BME280;21790;42.668;23.298;2024-03-08T02:15:26;94669.56;;;12.46;49.28
35676;BME280;21790;42.668;23.298;2024-03-08T02:17:52;94669.44;;;12.40;49.50
35676;BME280;21790;42.668;23.298;2024-03-08T02:20:18;94674.28;;;12.31;49.76
35676;BME280;21790;42.668;23.298;2024-03-08T02:22:45;94668.28;;;12.32;49.91
35676;BME280;21790;42.668;23.298;2024-03-08T02:25:11;94681.66;;;12.34;49.70
35676;BME280;21790;42.668;23.298;2024-03-08T02:27:37;94680.63;;;12.31;49.79
35676;BME280;21790;42.668;23.298;2024-03-08T02:30:03;94677.06;;;12.31;49.82
35676;BME280;21790;42.668;23.298;2024-03-08T02:32:30;94683.19;;;12.35;49.55
35676;BME280;21790;42.668;23.298;2024-03-08T02:34:58;94683.88;;;12.44;49.41
35676;BME280;21790;42.668;23.298;2024-03-08T02:37:25;94688.03;;;12.49;49.19
35676;BME280;21790;42.668;23.298;2024-03-08T02:39:51;94688.06;;;12.40;48.98
35676;BME280;21790;42.668;23.298;2024-03-08T02:42:16;94693.06;;;12.50;49.06
35676;BME280;21790;42.668;23.298;2024-03-08T02:44:43;94687.63;;;12.56;48.67
35676;BME280;21790;42.668;23.298;2024-03-08T02:47:09;94694.81;;;12.48;49.09
35676;BME280;21790;42.668;23.298;2024-03-08T02:49:35;94683.34;;;12.55;48.15
35676;BME280;21790;42.668;23.298;2024-03-08T02:52:03;94687.25;;;12.48;48.09
35676;BME280;21790;42.668;23.298;2024-03-08T02:54:29;94683.53;;;12.51;47.44
35676;BME280;21790;42.668;23.298;2024-03-08T02:56:54;94690.50;;;12.47;47.20
35676;BME280;21790;42.668;23.298;2024-03-08T02:59:20;94686.28;;;12.51;46.82
35676;BME280;21790;42.668;23.298;2024-03-08T03:01:45;94688.22;;;12.60;46.44
35676;BME280;21790;42.668;23.298;2024-03-08T03:04:10;94682.72;;;12.36;45.86
35676;BME280;21790;42.668;23.298;2024-03-08T03:06:36;94688.34;;;12.27;46.64
35676;BME280;21790;42.668;23.298;2024-03-08T03:09:02;94683.59;;;12.42;45.94
35676;BME280;21790;42.668;23.298;2024-03-08T03:11:27;94688.63;;;12.29;46.05
35676;BME280;21790;42.668;23.298;2024-03-08T03:13:53;94693.75;;;12.22;45.95
35676;BME280;21790;42.668;23.298;2024-03-08T03:16:19;94687.72;;;12.23;45.80
35676;BME280;21790;42.668;23.298;2024-03-08T03:18:48;94699.59;;;12.24;45.24
35676;BME280;21790;42.668;23.298;2024-03-08T03:21:14;94693.47;;;12.20;45.24
35676;BME280;21790;42.668;23.298;2024-03-08T03:23:40;94698.22;;;12.19;44.60
35676;BME280;21790;42.668;23.298;2024-03-08T03:26:07;94701.88;;;12.25;44.94
35676;BME280;21790;42.668;23.298;2024-03-08T03:28:33;94693.03;;;12.12;45.02
35676;BME280;21790;42.668;23.298;2024-03-08T03:30:59;94700.78;;;12.32;44.77
35676;BME280;21790;42.668;23.298;2024-03-08T03:33:25;94706.97;;;12.27;44.55
35676;BME280;21790;42.668;23.298;2024-03-08T03:35:51;94709.25;;;12.28;44.99
35676;BME280;21790;42.668;23.298;2024-03-08T03:38:19;94709.66;;;12.36;44.63
35676;BME280;21790;42.668;23.298;2024-03-08T03:40:48;94704.91;;;12.36;44.21
35676;BME280;21790;42.668;23.298;2024-03-08T03:43:17;94713.47;;;12.38;43.68
35676;BME280;21790;42.668;23.298;2024-03-08T03:45:43;94718.81;;;12.27;44.55
35676;BME280;21790;42.668;23.298;2024-03-08T03:48:08;94721.34;;;12.40;43.79
35676;BME280;21790;42.668;23.298;2024-03-08T03:50:35;94717.03;;;12.39;43.25
35676;BME280;21790;42.668;23.298;2024-03-08T03:53:00;94719.63;;;12.42;43.14
35676;BME280;21790;42.668;23.298;2024-03-08T03:55:27;94724.53;;;12.47;43.11
35676;BME280;21790;42.668;23.298;2024-03-08T03:57:54;94722.75;;;12.35;44.50
35676;BME280;21790;42.668;23.298;2024-03-08T04:00:19;94720.59;;;12.15;44.26
35676;BME280;21790;42.668;23.298;2024-03-08T04:02:45;94726.00;;;12.34;43.98
35676;BME280;21790;42.668;23.298;2024-03-08T04:05:12;94732.03;;;12.32;43.54
35676;BME280;21790;42.668;23.298;2024-03-08T04:07:38;94732.13;;;12.38;44.12
35676;BME280;21790;42.668;23.298;2024-03-08T04:10:06;94733.88;;;12.50;43.93
35676;BME280;21790;42.668;23.298;2024-03-08T04:12:35;94742.34;;;12.32;44.40
35676;BME280;21790;42.668;23.298;2024-03-08T04:15:01;94732.56;;;12.22;44.76
35676;BME280;21790;42.668;23.298;2024-03-08T04:17:26;94743.50;;;12.16;45.11
35676;BME280;21790;42.668;23.298;2024-03-08T04:19:52;94747.44;;;12.24;44.47
35676;BME280;21790;42.668;23.298;2024-03-08T04:22:18;94735.72;;;12.29;44.43
35676;BME280;21790;42.668;23.298;2024-03-08T04:24:44;94749.88;;;12.31;43.91
35676;BME280;21790;42.668;23.298;2024-03-08T04:27:11;94749.41;;;12.33;43.82
35676;BME280;21790;42.668;23.298;2024-03-08T04:29:36;94753.00;;;12.24;44.50
35676;BME280;21790;42.668;23.298;2024-03-08T04:32:04;94753.53;;;12.37;44.37
35676;BME280;21790;42.668;23.298;2024-03-08T04:34:30;94752.59;;;12.40;44.34
35676;BME280;21790;42.668;23.298;2024-03-08T04:36:59;94754.44;;;12.43;44.22
35676;BME280;21790;42.668;23.298;2024-03-08T04:39:24;94763.31;;;12.24;44.63
35676;BME280;21790;42.668;23.298;2024-03-08T04:41:53;94765.31;;;12.23;44.87
35676;BME280;21790;42.668;23.298;2024-03-08T04:44:20;94764.91;;;12.15;45.17
35676;BME280;21790;42.668;23.298;2024-03-08T04:46:45;94759.06;;;12.13;45.45
35676;BME280;21790;42.668;23.298;2024-03-08T04:49:12;94764.59;;;12.13;45.39
35676;BME280;21790;42.668;23.298;2024-03-08T04:51:38;94759.13;;;12.04;45.70
35676;BME280;21790;42.668;23.298;2024-03-08T04:54:04;94764.66;;;12.04;46.03
35676;BME280;21790;42.668;23.298;2024-03-08T04:56:30;94768.31;;;12.10;46.11
35676;BME280;21790;42.668;23.298;2024-03-08T04:58:55;94769.50;;;12.19;45.66
35676;BME280;21790;42.668;23.298;2024-03-08T05:01:21;94769.31;;;12.22;45.48
35676;BME280;21790;42.668;23.298;2024-03-08T05:03:47;94773.94;;;12.25;45.79
35676;BME280;21790;42.668;23.298;2024-03-08T05:06:15;94772.56;;;12.21;45.73
35676;BME280;21790;42.668;23.298;2024-03-08T05:08:41;94777.63;;;12.22;45.99
35676;BME280;21790;42.668;23.298;2024-03-08T05:11:06;94780.25;;;12.26;45.74
35676;BME280;21790;42.668;23.298;2024-03-08T05:13:32;94778.00;;;12.15;46.20
35676;BME280;21790;42.668;23.298;2024-03-08T05:15:59;94782.56;;;12.18;45.68
35676;BME280;21790;42.668;23.298;2024-03-08T05:18:25;94783.28;;;12.28;45.64
35676;BME280;21790;42.668;23.298;2024-03-08T05:20:51;94785.66;;;12.44;45.51
35676;BME280;21790;42.668;23.298;2024-03-08T05:23:17;94795.56;;;12.36;45.58
35676;BME280;21790;42.668;23.298;2024-03-08T05:25:45;94797.50;;;12.44;45.80
35676;BME280;21790;42.668;23.298;2024-03-08T05:28:12;94797.56;;;12.35;45.94
35676;BME280;21790;42.668;23.298;2024-03-08T05:30:38;94799.63;;;12.26;46.43
35676;BME280;21790;42.668;23.298;2024-03-08T05:33:04;94803.19;;;12.26;46.21
35676;BME280;21790;42.668;23.298;2024-03-08T05:35:29;94811.19;;;12.24;46.44
35676;BME280;21790;42.668;23.298;2024-03-08T05:37:55;94803.97;;;12.18;46.61
35676;BME280;21790;42.668;23.298;2024-03-08T05:40:23;94811.94;;;12.25;46.49
35676;BME280;21790;42.668;23.298;2024-03-08T05:42:49;94813.88;;;12.33;46.24
35676;BME280;21790;42.668;23.298;2024-03-08T05:45:14;94827.00;;;12.33;46.49
35676;BME280;21790;42.668;23.298;2024-03-08T05:47:40;94814.66;;;12.34;55.06
35676;BME280;21790;42.668;23.298;2024-03-08T05:50:06;94836.91;;;12.96;53.87
35676;BME280;21790;42.668;23.298;2024-03-08T05:52:35;94838.41;;;13.45;50.40
35676;BME280;21790;42.668;23.298;2024-03-08T05:55:01;94836.28;;;13.54;46.25
35676;BME280;21790;42.668;23.298;2024-03-08T05:57:26;94832.47;;;13.66;44.35
35676;BME280;21790;42.668;23.298;2024-03-08T05:59:52;94833.81;;;13.56;43.50
35676;BME280;21790;42.668;23.298;2024-03-08T06:02:17;94839.47;;;13.47;43.74
35676;BME280;21790;42.668;23.298;2024-03-08T06:04:46;94840.59;;;13.40;43.45
35676;BME280;21790;42.668;23.298;2024-03-08T06:07:12;94841.81;;;13.25;43.83
35676;BME280;21790;42.668;23.298;2024-03-08T06:09:38;94854.22;;;13.15;43.95
35676;BME280;21790;42.668;23.298;2024-03-08T06:12:04;94847.16;;;13.05;43.98
35676;BME280;21790;42.668;23.298;2024-03-08T06:14:31;94864.84;;;12.92;44.41
35676;BME280;21790;42.668;23.298;2024-03-08T06:16:57;94851.44;;;12.91;44.14
35676;BME280;21790;42.668;23.298;2024-03-08T06:19:23;94856.94;;;12.76;44.40
35676;BME280;21790;42.668;23.298;2024-03-08T06:21:48;94852.56;;;12.84;44.26
35676;BME280;21790;42.668;23.298;2024-03-08T06:24:14;94860.22;;;12.66;44.95
35676;BME280;21790;42.668;23.298;2024-03-08T06:26:43;94860.00;;;12.78;44.49
35676;BME280;21790;42.668;23.298;2024-03-08T06:29:08;94863.41;;;12.73;45.05
35676;BME280;21790;42.668;23.298;2024-03-08T06:31:34;94859.47;;;12.65;45.24
35676;BME280;21790;42.668;23.298;2024-03-08T06:33:59;94859.03;;;12.57;45.55
35676;BME280;21790;42.668;23.298;2024-03-08T06:36:25;94869.94;;;12.37;45.79
35676;BME280;21790;42.668;23.298;2024-03-08T06:38:50;94870.47;;;12.18;46.45
35676;BME280;21790;42.668;23.298;2024-03-08T06:41:17;94873.84;;;12.22;46.70
35676;BME280;21790;42.668;23.298;2024-03-08T06:43:52;94875.69;;;12.25;46.63
35676;BME280;21790;42.668;23.298;2024-03-08T06:46:22;94877.28;;;12.07;46.54
35676;BME280;21790;42.668;23.298;2024-03-08T06:48:51;94861.19;;;11.79;47.27
35676;BME280;21790;42.668;23.298;2024-03-08T06:51:20;94876.44;;;11.83;47.41
35676;BME280;21790;42.668;23.298;2024-03-08T06:53:46;94875.81;;;11.88;47.13
35676;BME280;21790;42.668;23.298;2024-03-08T06:56:11;94876.44;;;11.74;47.40
35676;BME280;21790;42.668;23.298;2024-03-08T06:58:49;94874.72;;;11.67;47.88
35676;BME280;21790;42.668;23.298;2024-03-08T07:01:16;94877.66;;;11.73;47.67
35676;BME280;21790;42.668;23.298;2024-03-08T07:03:42;94883.34;;;11.88;47.13
35676;BME280;21790;42.668;23.298;2024-03-08T07:06:10;94881.63;;;11.90;46.06
35676;BME280;21790;42.668;23.298;2024-03-08T07:08:36;94884.97;;;12.03;45.44
35676;BME280;21790;42.668;23.298;2024-03-08T07:11:05;94880.94;;;12.13;44.93
35676;BME280;21790;42.668;23.298;2024-03-08T07:13:30;94879.00;;;12.38;44.85
35676;BME280;21790;42.668;23.298;2024-03-08T07:15:56;94884.25;;;12.36;44.95
35676;BME280;21790;42.668;23.298;2024-03-08T07:18:21;94888.34;;;12.49;44.93
35676;BME280;21790;42.668;23.298;2024-03-08T07:20:47;94876.44;;;12.58;44.05
35676;BME280;21790;42.668;23.298;2024-03-08T07:23:14;94887.19;;;12.65;43.88
35676;BME280;21790;42.668;23.298;2024-03-08T07:26:00;94882.88;;;12.64;43.60
35676;BME280;21790;42.668;23.298;2024-03-08T07:28:26;94899.59;;;12.79;43.14
35676;BME280;21790;42.668;23.298;2024-03-08T07:30:52;94893.78;;;12.68;43.05
35676;BME280;21790;42.668;23.298;2024-03-08T07:33:26;94890.56;;;12.69;42.94
35676;BME280;21790;42.668;23.298;2024-03-08T07:35:52;94899.84;;;12.57;43.19
35676;BME280;21790;42.668;23.298;2024-03-08T07:38:20;94897.13;;;12.81;43.39
35676;BME280;21790;42.668;23.298;2024-03-08T07:40:46;94896.50;;;12.77;43.04
35676;BME280;21790;42.668;23.298;2024-03-08T07:43:15;94902.81;;;12.77;42.94
35676;BME280;21790;42.668;23.298;2024-03-08T07:45:40;94903.44;;;12.81;43.02
35676;BME280;21790;42.668;23.298;2024-03-08T07:48:07;94893.28;;;12.78;42.95
35676;BME280;21790;42.668;23.298;2024-03-08T07:50:40;94899.91;;;12.81;43.21
35676;BME280;21790;42.668;23.298;2024-03-08T07:53:06;94901.59;;;12.78;43.37
35676;BME280;21790;42.668;23.298;2024-03-08T07:55:36;94901.19;;;12.94;42.87
35676;BME280;21790;42.668;23.298;2024-03-08T07:58:02;94898.56;;;12.67;43.02
35676;BME280;21790;42.668;23.298;2024-03-08T08:00:28;94901.56;;;12.54;43.77
35676;BME280;21790;42.668;23.298;2024-03-08T08:02:55;94906.88;;;12.34;44.37
35676;BME280;21790;42.668;23.298;2024-03-08T08:05:21;94887.38;;;12.20;44.71
35676;BME280;21790;42.668;23.298;2024-03-08T08:07:46;94910.09;;;12.42;44.84
35676;BME280;21790;42.668;23.298;2024-03-08T08:10:16;94890.13;;;12.62;44.65
35676;BME280;21790;42.668;23.298;2024-03-08T08:12:48;94901.19;;;12.71;44.63
35676;BME280;21790;42.668;23.298;2024-03-08T08:15:14;94893.00;;;12.76;43.67
35676;BME280;21790;42.668;23.298;2024-03-08T08:17:43;94903.44;;;12.81;43.79
35676;BME280;21790;42.668;23.298;2024-03-08T08:20:10;94892.50;;;12.78;44.18
35676;BME280;21790;42.668;23.298;2024-03-08T08:22:37;94898.25;;;12.98;43.40
35676;BME280;21790;42.668;23.298;2024-03-08T08:25:04;94895.38;;;13.16;43.12
35676;BME280;21790;42.668;23.298;2024-03-08T08:27:32;94892.34;;;13.29;42.79
35676;BME280;21790;42.668;23.298;2024-03-08T08:29:58;94896.16;;;13.31;42.70
35676;BME280;21790;42.668;23.298;2024-03-08T08:32:24;94905.78;;;13.45;42.30
35676;BME280;21790;42.668;23.298;2024-03-08T08:34:49;94904.22;;;13.29;43.04
35676;BME280;21790;42.668;23.298;2024-03-08T08:37:15;94904.13;;;13.38;43.28
35676;BME280;21790;42.668;23.298;2024-03-08T08:39:42;94900.44;;;13.42;42.82
35676;BME280;21790;42.668;23.298;2024-03-08T08:42:07;94901.22;;;13.57;42.18
35676;BME280;21790;42.668;23.298;2024-03-08T08:44:35;94900.38;;;13.65;41.81
35676;BME280;21790;42.668;23.298;2024-03-08T08:47:01;94892.28;;;13.38;42.38
35676;BME280;21790;42.668;23.298;2024-03-08T08:49:26;94888.91;;;13.34;42.37
35676;BME280;21790;42.668;23.298;2024-03-08T08:51:52;94887.28;;;13.42;42.78
35676;BME280;21790;42.668;23.298;2024-03-08T08:54:18;94888.03;;;13.66;42.51
35676;BME280;21790;42.668;23.298;2024-03-08T08:56:44;94882.66;;;13.77;42.24
35676;BME280;21790;42.668;23.298;2024-03-08T08:59:10;94892.91;;;13.86;41.68
35676;BME280;21790;42.668;23.298;2024-03-08T09:01:39;94887.28;;;13.95;41.29
35676;BME280;21790;42.668;23.298;2024-03-08T09:04:05;94890.13;;;13.71;41.64
35676;BME280;21790;42.668;23.298;2024-03-08T09:06:31;94894.84;;;13.95;41.46
35676;BME280;21790;42.668;23.298;2024-03-08T09:08:56;94878.94;;;14.10;40.94
35676;BME280;21790;42.668;23.298;2024-03-08T09:11:23;94892.81;;;14.10;41.53
35676;BME280;21790;42.668;23.298;2024-03-08T09:13:50;94885.38;;;14.01;41.64
35676;BME280;21790;42.668;23.298;2024-03-08T09:16:16;94878.44;;;13.97;41.40
35676;BME280;21790;42.668;23.298;2024-03-08T09:18:41;94884.00;;;13.53;42.23
35676;BME280;21790;42.668;23.298;2024-03-08T09:21:07;94886.84;;;13.58;42.20
35676;BME280;21790;42.668;23.298;2024-03-08T09:23:35;94884.28;;;13.69;42.33
35676;BME280;21790;42.668;23.298;2024-03-08T09:26:01;94881.53;;;13.84;40.38
35676;BME280;21790;42.668;23.298;2024-03-08T09:28:28;94881.72;;;14.10;40.17
35676;BME280;21790;42.668;23.298;2024-03-08T09:30:54;94875.97;;;14.28;39.90
35676;BME280;21790;42.668;23.298;2024-03-08T09:33:20;94877.66;;;14.55;40.01
35676;BME280;21790;42.668;23.298;2024-03-08T09:35:47;94876.91;;;14.54;39.31
35676;BME280;21790;42.668;23.298;2024-03-08T09:38:14;94864.94;;;14.69;38.97
35676;BME280;21790;42.668;23.298;2024-03-08T09:40:43;94872.72;;;14.99;38.76
35676;BME280;21790;42.668;23.298;2024-03-08T09:43:09;94876.94;;;14.95;38.36
35676;BME280;21790;42.668;23.298;2024-03-08T09:45:37;94877.47;;;14.93;37.80
35676;BME280;21790;42.668;23.298;2024-03-08T09:48:11;94875.84;;;15.07;37.11
35676;BME280;21790;42.668;23.298;2024-03-08T09:50:43;94876.16;;;14.74;38.20
35676;BME280;21790;42.668;23.298;2024-03-08T09:53:08;94877.53;;;14.64;37.69
35676;BME280;21790;42.668;23.298;2024-03-08T09:55:38;94867.50;;;14.87;37.59
35676;BME280;21790;42.668;23.298;2024-03-08T09:58:08;94877.47;;;14.79;37.28
35676;BME280;21790;42.668;23.298;2024-03-08T10:00:43;94880.69;;;14.72;36.75
35676;BME280;21790;42.668;23.298;2024-03-08T10:03:08;94872.66;;;14.94;37.24
35676;BME280;21790;42.668;23.298;2024-03-08T10:05:34;94867.78;;;15.09;36.79
35676;BME280;21790;42.668;23.298;2024-03-08T10:08:00;94870.97;;;15.02;37.52
35676;BME280;21790;42.668;23.298;2024-03-08T10:10:25;94867.66;;;15.18;37.23
35676;BME280;21790;42.668;23.298;2024-03-08T10:12:52;94876.84;;;15.24;36.80
35676;BME280;21790;42.668;23.298;2024-03-08T10:15:17;94871.91;;;15.54;36.94
35676;BME280;21790;42.668;23.298;2024-03-08T10:17:43;94877.03;;;15.61;36.88
35676;BME280;21790;42.668;23.298;2024-03-08T10:20:16;94870.97;;;15.63;35.96
35676;BME280;21790;42.668;23.298;2024-03-08T10:22:43;94877.72;;;15.36;36.38
35676;BME280;21790;42.668;23.298;2024-03-08T10:25:12;94869.19;;;15.60;36.57
35676;BME280;21790;42.668;23.298;2024-03-08T10:27:39;94870.44;;;15.59;37.53
35676;BME280;21790;42.668;23.298;2024-03-08T10:30:15;94866.22;;;15.69;37.27
35676;BME280;21790;42.668;23.298;2024-03-08T10:32:45;94862.63;;;15.42;37.68
35676;BME280;21790;42.668;23.298;2024-03-08T10:35:11;94871.81;;;15.48;36.80
35676;BME280;21790;42.668;23.298;2024-03-08T10:37:48;94856.81;;;15.66;36.86
35676;BME280;21790;42.668;23.298;2024-03-08T10:40:19;94861.97;;;15.73;37.48
35676;BME280;21790;42.668;23.298;2024-03-08T10:45:31;94855.75;;;15.58;36.94
35676;BME280;21790;42.668;23.298;2024-03-08T10:48:30;94851.34;;;15.52;37.37
35676;BME280;21790;42.668;23.298;2024-03-08T10:51:02;94847.16;;;15.41;37.99
35676;BME280;21790;42.668;23.298;2024-03-08T10:53:29;94848.38;;;15.15;38.01
35676;BME280;21790;42.668;23.298;2024-03-08T10:55:57;94845.66;;;15.20;38.24
35676;BME280;21790;42.668;23.298;2024-03-08T10:58:27;94849.88;;;15.36;37.65
35676;BME280;21790;42.668;23.298;2024-03-08T11:00:54;94849.47;;;15.63;37.18
35676;BME280;21790;42.668;23.298;2024-03-08T11:06:06;94832.13;;;15.79;35.88
35676;BME280;21790;42.668;23.298;2024-03-08T11:08:36;94826.28;;;15.52;37.20
35676;BME280;21790;42.668;23.298;2024-03-08T11:11:01;94823.72;;;15.07;38.09
35676;BME280;21790;42.668;23.298;2024-03-08T11:13:37;94831.03;;;15.71;40.86
35676;BME280;21790;42.668;23.298;2024-03-08T11:16:37;94828.94;;;16.55;50.23
35676;BME280;21790;42.668;23.298;2024-03-08T11:18:58;94817.59;;;17.06;45.37
35676;BME280;21790;42.668;23.298;2024-03-08T11:21:30;94821.28;;;17.46;43.56
35676;BME280;21790;42.668;23.298;2024-03-08T11:24:06;94818.59;;;17.79;40.41
35676;BME280;21790;42.668;23.298;2024-03-08T11:26:38;94819.38;;;17.91;37.12
35676;BME280;21790;42.668;23.298;2024-03-08T11:29:34;94814.25;;;17.78;34.14
35676;BME280;21790;42.668;23.298;2024-03-08T11:32:11;94812.84;;;17.35;34.53
35676;BME280;21790;42.668;23.298;2024-03-08T11:34:46;94803.91;;;17.14;34.64
35676;BME280;21790;42.668;23.298;2024-03-08T11:37:17;94813.06;;;16.66;35.39
35676;BME280;21790;42.668;23.298;2024-03-08T11:40:12;94802.09;;;16.26;36.54
35676;BME280;21790;42.668;23.298;2024-03-08T11:42:44;94797.69;;;16.08;36.54
35676;BME280;21790;42.668;23.298;2024-03-08T11:45:11;94806.78;;;16.03;35.42
35676;BME280;21790;42.668;23.298;2024-03-08T11:47:37;94801.81;;;15.87;35.92
35676;BME280;21790;42.668;23.298;2024-03-08T11:50:06;94804.72;;;15.98;35.96
35676;BME280;21790;42.668;23.298;2024-03-08T11:52:36;94809.50;;;15.72;36.13
35676;BME280;21790;42.668;23.298;2024-03-08T11:55:02;94802.16;;;15.69;35.81
35676;BME280;21790;42.668;23.298;2024-03-08T11:57:28;94801.16;;;15.72;35.90
35676;BME280;21790;42.668;23.298;2024-03-08T11:59:55;94796.84;;;15.97;35.64
35676;BME280;21790;42.668;23.298;2024-03-08T12:02:31;94802.09;;;16.26;35.25
35676;BME280;21790;42.668;23.298;2024-03-08T12:04:58;94793.38;;;16.44;34.36
35676;BME280;21790;42.668;23.298;2024-03-08T12:07:35;94788.84;;;16.47;35.52
35676;BME280;21790;42.668;23.298;2024-03-08T12:10:20;94793.16;;;16.90;34.82
35676;BME280;21790;42.668;23.298;2024-03-08T12:12:48;94798.00;;;16.95;34.52
35676;BME280;21790;42.668;23.298;2024-03-08T12:15:15;94797.63;;;16.77;33.55
35676;BME280;21790;42.668;23.298;2024-03-08T12:17:43;94789.91;;;17.03;33.36
35676;BME280;21790;42.668;23.298;2024-03-08T12:20:19;94793.28;;;17.18;33.22
35676;BME280;21790;42.668;23.298;2024-03-08T12:22:47;94782.22;;;16.87;33.48
35676;BME280;21790;42.668;23.298;2024-03-08T12:25:14;94784.41;;;16.66;33.24
35676;BME280;21790;42.668;23.298;2024-03-08T12:27:41;94785.63;;;16.59;33.48
35676;BME280;21790;42.668;23.298;2024-03-08T12:30:24;94788.53;;;16.82;33.32
35676;BME280;21790;42.668;23.298;2024-03-08T12:32:56;94789.97;;;16.66;33.54
35676;BME280;21790;42.668;23.298;2024-03-08T12:35:26;94787.06;;;16.49;33.84
35676;BME280;21790;42.668;23.298;2024-03-08T12:37:59;94780.88;;;16.71;33.13
35676;BME280;21790;42.668;23.298;2024-03-08T12:40:29;94779.16;;;16.79;33.33
35676;BME280;21790;42.668;23.298;2024-03-08T12:42:57;94774.25;;;16.63;33.34
35676;BME280;21790;42.668;23.298;2024-03-08T12:45:23;94778.94;;;16.88;33.63
35676;BME280;21790;42.668;23.298;2024-03-08T12:47:55;94774.94;;;17.06;33.36
35676;BME280;21790;42.668;23.298;2024-03-08T12:50:22;94772.34;;;16.91;34.39
35676;BME280;21790;42.668;23.298;2024-03-08T12:52:50;94772.88;;;16.95;33.96
35676;BME280;21790;42.668;23.298;2024-03-08T12:55:21;94768.56;;;17.00;33.72
35676;BME280;21790;42.668;23.298;2024-03-08T12:57:46;94764.00;;;17.02;33.96